Time;durP1;ratioP1;P1;durP2;ratioP2;P2;SDS_P1;SDS_P2;PMS_P1;PMS_P2;Temp;Humidity;BMP_temperature;BMP_pressure;BME280_temperature;BME280_humidity;BME280_pressure;Samples;Min_cycle;Max_cycle;Signal;HPM_P1;HPM_P2
2021/06/25 00:00:46;;;;;;;16.65;5.12;;;;;;;;;;4374799;32;20683;-58
2021/06/25 00:03:12;;;;;;;12.57;4.75;;;;;;;;;;4374249;32;20316;-58
2021/06/25 00:05:38;;;;;;;17.45;6.12;;;;;;;;;;4388146;32;20311;-59
2021/06/25 00:08:03;;;;;;;14.43;5.72;;;;;;;;;;4387903;32;20214;-58
2021/06/25 00:10:29;;;;;;;10.35;4.40;;;;;;;;;;4388002;32;20296;-58
2021/06/25 00:12:55;;;;;;;19.10;4.30;;;;;;;;;;4387919;32;20332;-58
2021/06/25 00:15:20;;;;;;;10.82;5.18;;;;;;;;;;4387935;32;20265;-57
2021/06/25 00:17:46;;;;;;;16.67;5.32;;;;;;;;;;4387750;32;20241;-58
2021/06/25 00:20:14;;;;;;;21.90;5.50;;;;;;;;;;4387708;32;20370;-58
2021/06/25 00:22:39;;;;;;;17.48;5.57;;;;;;;;;;4387581;32;20365;-58
2021/06/25 00:25:05;;;;;;;18.58;6.03;;;;;;;;;;4387932;32;20415;-58
2021/06/25 00:27:31;;;;;;;15.98;5.40;;;;;;;;;;4387714;32;20210;-58
2021/06/25 00:29:56;;;;;;;20.58;6.45;;;;;;;;;;4387707;32;20390;-57
2021/06/25 00:32:22;;;;;;;12.05;4.55;;;;;;;;;;4387992;32;20289;-57
2021/06/25 00:34:47;;;;;;;14.05;4.60;;;;;;;;;;4373659;32;20744;-59
2021/06/25 00:37:13;;;;;;;22.35;5.37;;;;;;;;;;4387594;32;20210;-57
2021/06/25 00:39:38;;;;;;;13.68;5.68;;;;;;;;;;4387545;32;20356;-58
2021/06/25 00:42:07;;;;;;;15.02;4.50;;;;;;;;;;4373839;32;20252;-58
2021/06/25 00:44:32;;;;;;;25.33;6.10;;;;;;;;;;4387615;32;20725;-58
2021/06/25 00:46:58;;;;;;;17.42;5.65;;;;;;;;;;4387320;32;20244;-58
2021/06/25 00:49:23;;;;;;;20.75;9.15;;;;;;;;;;4387454;32;20509;-58
2021/06/25 00:51:49;;;;;;;17.25;9.52;;;;;;;;;;4387664;32;20375;-59
2021/06/25 00:54:14;;;;;;;16.98;6.87;;;;;;;;;;4387593;32;20252;-59
2021/06/25 00:56:42;;;;;;;13.62;4.95;;;;;;;;;;4387538;32;20269;-58
2021/06/25 00:59:07;;;;;;;12.52;4.75;;;;;;;;;;4387504;32;20388;-58
2021/06/25 01:01:33;;;;;;;15.43;5.57;;;;;;;;;;4388951;32;20694;-58
2021/06/25 01:03:58;;;;;;;29.95;16.98;;;;;;;;;;4364445;32;20232;-57
2021/06/25 01:06:28;;;;;;;31.85;15.93;;;;;;;;;;4390652;32;20575;-58
2021/06/25 01:08:55;;;;;;;24.20;13.07;;;;;;;;;;4390078;32;20287;-57
2021/06/25 01:11:21;;;;;;;20.08;7.07;;;;;;;;;;4390688;32;20218;-59
2021/06/25 01:13:47;;;;;;;20.92;8.65;;;;;;;;;;4390559;32;20323;-58
2021/06/25 01:16:14;;;;;;;23.23;9.82;;;;;;;;;;4376785;32;20384;-58
2021/06/25 01:18:39;;;;;;;19.62;9.60;;;;;;;;;;4376749;32;20584;-58
2021/06/25 01:21:05;;;;;;;19.30;8.65;;;;;;;;;;4390284;32;20645;-58
2021/06/25 01:23:35;;;;;;;19.23;9.05;;;;;;;;;;4390576;32;20608;-58
2021/06/25 01:26:01;;;;;;;19.85;7.03;;;;;;;;;;4376785;32;20695;-57
2021/06/25 01:28:26;;;;;;;15.98;7.75;;;;;;;;;;4390293;32;20355;-57
2021/06/25 01:30:52;;;;;;;15.43;7.15;;;;;;;;;;4390441;32;20297;-58
2021/06/25 01:33:19;;;;;;;17.45;6.43;;;;;;;;;;4390146;32;20292;-58
2021/06/25 01:35:45;;;;;;;10.40;5.87;;;;;;;;;;4390454;32;20210;-58
2021/06/25 01:38:13;;;;;;;11.60;5.93;;;;;;;;;;4390328;32;20589;-58
2021/06/25 01:40:39;;;;;;;12.60;4.62;;;;;;;;;;4390289;32;20256;-59
2021/06/25 01:43:08;;;;;;;13.38;5.12;;;;;;;;;;4389992;32;20285;-57
2021/06/25 01:45:36;;;;;;;15.85;5.85;;;;;;;;;;4390054;32;20279;-58
2021/06/25 01:48:03;;;;;;;15.80;4.85;;;;;;;;;;4390083;32;20241;-57
2021/06/25 01:50:36;;;;;;;21.40;6.50;;;;;;;;;;4390041;32;20270;-58
2021/06/25 01:53:03;;;;;;;21.37;5.45;;;;;;;;;;4390006;32;20244;-57
2021/06/25 01:55:38;;;;;;;11.88;5.20;;;;;;;;;;4389190;32;20524;-58
2021/06/25 01:58:07;;;;;;;26.33;6.80;;;;;;;;;;4377650;32;20229;-58
2021/06/25 02:00:32;;;;;;;19.62;5.03;;;;;;;;;;4390045;32;20312;-57
2021/06/25 02:02:57;;;;;;;12.68;5.18;;;;;;;;;;4389822;32;20213;-58
2021/06/25 02:05:23;;;;;;;20.52;5.97;;;;;;;;;;4389735;32;20268;-58
2021/06/25 02:07:48;;;;;;;16.42;5.72;;;;;;;;;;4389776;32;20754;-58
2021/06/25 02:10:14;;;;;;;21.62;6.30;;;;;;;;;;4389738;32;20612;-58
2021/06/25 02:12:40;;;;;;;16.37;6.22;;;;;;;;;;4388941;32;20248;-58
2021/06/25 02:15:08;;;;;;;13.43;6.22;;;;;;;;;;4390039;32;20352;-58
2021/06/25 02:17:34;;;;;;;12.57;5.70;;;;;;;;;;4375680;32;20253;-58
2021/06/25 02:19:59;;;;;;;16.70;5.05;;;;;;;;;;4389739;32;20281;-57
2021/06/25 02:22:24;;;;;;;13.77;4.75;;;;;;;;;;4389447;32;20403;-58
2021/06/25 02:24:50;;;;;;;18.62;5.97;;;;;;;;;;4389647;32;20331;-58
2021/06/25 02:27:15;;;;;;;9.65;4.53;;;;;;;;;;4389476;32;20234;-58
2021/06/25 02:29:41;;;;;;;18.90;6.12;;;;;;;;;;4375551;32;20312;-58
2021/06/25 02:32:07;;;;;;;19.40;5.35;;;;;;;;;;4375364;32;20237;-58
2021/06/25 02:34:32;;;;;;;17.83;4.72;;;;;;;;;;4389323;32;20336;-59
2021/06/25 02:36:58;;;;;;;12.57;6.03;;;;;;;;;;4389490;32;20595;-59
2021/06/25 02:39:24;;;;;;;20.30;5.82;;;;;;;;;;4375514;32;20287;-59
2021/06/25 02:41:50;;;;;;;23.25;6.30;;;;;;;;;;4389280;32;20240;-59
2021/06/25 02:44:16;;;;;;;25.00;5.35;;;;;;;;;;4375376;32;20835;-59
2021/06/25 02:46:41;;;;;;;26.00;5.53;;;;;;;;;;4389354;32;20296;-58
2021/06/25 02:49:07;;;;;;;10.02;4.85;;;;;;;;;;4389000;32;20198;-58
2021/06/25 02:51:32;;;;;;;12.35;5.12;;;;;;;;;;4388970;32;20352;-58
2021/06/25 02:53:58;;;;;;;12.70;4.70;;;;;;;;;;4389034;32;20289;-58
2021/06/25 02:56:23;;;;;;;17.77;6.03;;;;;;;;;;4389246;32;20269;-58
2021/06/25 02:58:48;;;;;;;13.90;5.78;;;;;;;;;;4389146;32;20515;-59
2021/06/25 03:01:14;;;;;;;19.62;6.12;;;;;;;;;;4374612;32;20308;-58
2021/06/25 03:03:39;;;;;;;25.80;5.32;;;;;;;;;;4389006;32;20218;-58
2021/06/25 03:06:05;;;;;;;16.95;5.45;;;;;;;;;;4389056;32;20326;-58
2021/06/25 03:08:30;;;;;;;18.95;5.55;;;;;;;;;;4388919;32;20286;-57
2021/06/25 03:10:56;;;;;;;20.73;4.28;;;;;;;;;;4388670;32;20285;-59
2021/06/25 03:13:23;;;;;;;20.98;5.40;;;;;;;;;;4388461;32;20291;-58
2021/06/25 03:15:49;;;;;;;19.10;6.95;;;;;;;;;;4388991;32;20333;-58
2021/06/25 03:18:16;;;;;;;16.40;6.72;;;;;;;;;;4388706;32;20217;-58
2021/06/25 03:20:43;;;;;;;20.27;6.20;;;;;;;;;;4388373;32;20722;-58
2021/06/25 03:23:09;;;;;;;14.38;6.05;;;;;;;;;;4388564;32;20749;-58
2021/06/25 03:25:35;;;;;;;16.17;6.45;;;;;;;;;;4388589;32;20225;-58
2021/06/25 03:28:01;;;;;;;20.02;6.57;;;;;;;;;;4388416;32;20229;-58
2021/06/25 03:30:27;;;;;;;22.45;7.15;;;;;;;;;;4388519;32;20217;-57
2021/06/25 03:32:53;;;;;;;21.15;5.03;;;;;;;;;;4387821;32;20327;-57
2021/06/25 03:35:19;;;;;;;26.30;5.45;;;;;;;;;;4388559;32;20668;-57
2021/06/25 03:37:44;;;;;;;21.42;5.97;;;;;;;;;;4388755;32;20222;-58
2021/06/25 03:40:12;;;;;;;17.85;5.80;;;;;;;;;;4388518;32;20744;-57
2021/06/25 03:42:41;;;;;;;24.05;7.18;;;;;;;;;;4388378;32;20255;-58
2021/06/25 03:45:08;;;;;;;14.27;5.55;;;;;;;;;;4374974;32;20677;-58
2021/06/25 03:47:33;;;;;;;18.20;6.53;;;;;;;;;;4388356;32;20699;-58
2021/06/25 03:50:00;;;;;;;16.25;5.72;;;;;;;;;;4388417;32;20291;-58
2021/06/25 03:52:25;;;;;;;23.90;6.68;;;;;;;;;;4388555;32;20285;-57
2021/06/25 03:54:51;;;;;;;15.52;5.97;;;;;;;;;;4388263;32;20277;-58
2021/06/25 03:57:16;;;;;;;23.30;6.03;;;;;;;;;;4388047;32;20268;-57
2021/06/25 03:59:42;;;;;;;22.08;6.43;;;;;;;;;;4388293;32;20311;-57
2021/06/25 04:02:10;;;;;;;26.45;8.10;;;;;;;;;;4388145;32;20351;-58
2021/06/25 04:04:37;;;;;;;12.45;6.15;;;;;;;;;;4388202;32;20714;-58
2021/06/25 04:07:04;;;;;;;21.33;5.87;;;;;;;;;;4388082;32;20677;-58
2021/06/25 04:09:30;;;;;;;17.40;6.10;;;;;;;;;;4387912;32;20210;-58
2021/06/25 04:11:56;;;;;;;16.40;6.25;;;;;;;;;;4387962;32;20218;-58
2021/06/25 04:14:21;;;;;;;14.35;4.93;;;;;;;;;;4387815;32;20252;-58
2021/06/25 04:16:47;;;;;;;21.52;6.28;;;;;;;;;;4388012;32;20295;-57
2021/06/25 04:19:13;;;;;;;20.60;5.00;;;;;;;;;;4388131;32;20300;-57
2021/06/25 04:21:38;;;;;;;24.23;6.45;;;;;;;;;;4387368;32;20328;-57
2021/06/25 04:24:04;;;;;;;14.25;5.80;;;;;;;;;;4387951;32;20279;-59
2021/06/25 04:26:30;;;;;;;22.98;6.20;;;;;;;;;;4387475;32;20633;-57
2021/06/25 04:28:55;;;;;;;13.88;5.65;;;;;;;;;;4387814;32;20293;-58
2021/06/25 04:31:21;;;;;;;21.75;7.00;;;;;;;;;;4388296;32;20575;-57
2021/06/25 04:33:46;;;;;;;20.37;6.55;;;;;;;;;;4387893;32;20252;-57
2021/06/25 04:36:12;;;;;;;28.92;6.65;;;;;;;;;;4373769;32;20752;-58
2021/06/25 04:38:37;;;;;;;16.10;5.85;;;;;;;;;;4374025;32;20308;-59
2021/06/25 04:41:03;;;;;;;17.55;6.12;;;;;;;;;;4387815;32;20627;-59
2021/06/25 04:43:29;;;;;;;17.90;7.18;;;;;;;;;;4387263;32;20234;-57
2021/06/25 04:45:55;;;;;;;26.25;8.10;;;;;;;;;;4387549;32;20273;-58
2021/06/25 04:48:21;;;;;;;23.33;6.90;;;;;;;;;;4387120;32;20213;-58
2021/06/25 04:50:46;;;;;;;19.80;5.55;;;;;;;;;;4387740;32;20316;-58
2021/06/25 04:53:12;;;;;;;24.75;6.97;;;;;;;;;;4387644;32;20613;-58
2021/06/25 04:55:42;;;;;;;18.67;6.05;;;;;;;;;;4387001;32;20891;-60
2021/06/25 04:58:18;;;;;;;18.42;7.65;;;;;;;;;;4387429;32;20312;-59
2021/06/25 05:00:45;;;;;;;23.92;7.60;;;;;;;;;;4386951;32;20284;-58
2021/06/25 05:03:11;;;;;;;22.30;6.85;;;;;;;;;;4387072;32;20241;-58
2021/06/25 05:05:38;;;;;;;16.20;6.60;;;;;;;;;;4374022;32;20293;-58
2021/06/25 05:08:05;;;;;;;19.50;6.28;;;;;;;;;;4387545;32;20304;-58
2021/06/25 05:10:31;;;;;;;19.58;6.03;;;;;;;;;;4387358;32;20201;-59
2021/06/25 05:12:57;;;;;;;21.98;6.68;;;;;;;;;;4387590;32;20211;-59
2021/06/25 05:15:23;;;;;;;20.33;6.78;;;;;;;;;;4386637;32;20269;-58
2021/06/25 05:17:50;;;;;;;17.00;6.50;;;;;;;;;;4386611;32;20300;-58
2021/06/25 05:20:19;;;;;;;20.10;6.40;;;;;;;;;;4387299;32;20344;-58
2021/06/25 05:22:45;;;;;;;22.35;8.57;;;;;;;;;;4386868;32;20246;-58
2021/06/25 05:25:11;;;;;;;34.35;10.10;;;;;;;;;;4386771;32;20380;-58
2021/06/25 05:27:37;;;;;;;19.17;6.65;;;;;;;;;;4386351;32;20213;-58
2021/06/25 05:30:05;;;;;;;17.27;6.65;;;;;;;;;;4385127;32;20374;-58
2021/06/25 05:32:30;;;;;;;20.98;7.18;;;;;;;;;;4385386;32;20293;-58
2021/06/25 05:34:56;;;;;;;16.35;5.55;;;;;;;;;;4385455;32;20752;-59
2021/06/25 05:37:22;;;;;;;22.10;7.82;;;;;;;;;;4384638;32;20233;-58
2021/06/25 05:39:47;;;;;;;17.55;6.00;;;;;;;;;;4384901;32;20289;-58
2021/06/25 05:42:13;;;;;;;17.77;6.03;;;;;;;;;;4384860;32;20331;-58
2021/06/25 05:44:38;;;;;;;19.75;6.72;;;;;;;;;;4371439;32;20344;-59
2021/06/25 05:47:04;;;;;;;15.20;5.90;;;;;;;;;;4385942;32;20252;-58
2021/06/25 05:49:30;;;;;;;18.90;7.45;;;;;;;;;;4389071;32;20601;-59
2021/06/25 05:51:56;;;;;;;27.30;6.43;;;;;;;;;;4390325;32;20298;-58
2021/06/25 05:54:21;;;;;;;21.00;6.28;;;;;;;;;;4376485;32;20222;-59
2021/06/25 05:56:47;;;;;;;22.80;8.23;;;;;;;;;;4389927;32;20296;-58
2021/06/25 05:59:12;;;;;;;16.45;6.15;;;;;;;;;;4390032;32;20625;-58
2021/06/25 06:01:38;;;;;;;17.52;6.60;;;;;;;;;;4390197;32;20354;-58
2021/06/25 06:04:03;;;;;;;19.33;6.60;;;;;;;;;;4389298;32;20298;-58
2021/06/25 06:06:29;;;;;;;14.95;6.00;;;;;;;;;;4389719;32;20296;-58
2021/06/25 06:08:54;;;;;;;13.57;5.68;;;;;;;;;;4376089;32;20302;-58
2021/06/25 06:11:20;;;;;;;18.65;5.82;;;;;;;;;;4389664;32;20289;-57
2021/06/25 06:13:45;;;;;;;21.60;6.90;;;;;;;;;;4375369;32;20309;-58
2021/06/25 06:16:11;;;;;;;12.63;6.15;;;;;;;;;;4389100;32;20300;-61
2021/06/25 06:18:47;;;;;;;22.45;7.25;;;;;;;;;;4388868;32;20206;-58
2021/06/25 06:21:15;;;;;;;19.30;6.20;;;;;;;;;;4389344;32;20263;-58
2021/06/25 06:32:14;;;;;;;14.57;5.32;;;;;;;;;;4388998;32;20260;-57
2021/06/25 06:34:40;;;;;;;25.92;7.32;;;;;;;;;;4388784;32;20218;-57
2021/06/25 06:37:06;;;;;;;18.48;6.07;;;;;;;;;;4389123;32;20328;-58
2021/06/25 06:39:32;;;;;;;26.73;6.90;;;;;;;;;;4388874;32;20237;-59
2021/06/25 06:41:59;;;;;;;28.62;6.18;;;;;;;;;;4388711;32;20253;-59
2021/06/25 06:44:24;;;;;;;20.05;7.62;;;;;;;;;;4388567;32;20206;-58
2021/06/25 06:46:50;;;;;;;25.37;6.50;;;;;;;;;;4388406;32;20209;-57
2021/06/25 06:49:15;;;;;;;17.17;5.95;;;;;;;;;;4388183;32;20309;-58
2021/06/25 06:51:41;;;;;;;13.15;6.15;;;;;;;;;;4388415;32;20273;-58
2021/06/25 06:54:07;;;;;;;21.12;8.05;;;;;;;;;;4374453;32;20245;-58
2021/06/25 06:56:32;;;;;;;25.92;8.30;;;;;;;;;;4387856;32;20277;-59
2021/06/25 06:59:00;;;;;;;15.30;7.12;;;;;;;;;;4388165;32;20807;-58
2021/06/25 07:01:27;;;;;;;16.60;5.43;;;;;;;;;;4388650;32;20314;-58
2021/06/25 07:03:53;;;;;;;19.55;6.32;;;;;;;;;;4388095;32;20295;-58
2021/06/25 07:06:18;;;;;;;26.02;6.97;;;;;;;;;;4388861;32;20328;-58
2021/06/25 07:08:44;;;;;;;17.95;6.10;;;;;;;;;;4387748;32;20214;-58
2021/06/25 07:11:10;;;;;;;18.65;7.18;;;;;;;;;;4387821;32;20265;-58
2021/06/25 07:13:35;;;;;;;20.35;5.62;;;;;;;;;;4374653;32;20329;-58
2021/06/25 07:16:01;;;;;;;23.30;7.00;;;;;;;;;;4374423;32;20300;-58
2021/06/25 07:18:26;;;;;;;16.65;6.60;;;;;;;;;;4387464;32;20578;-58
2021/06/25 07:20:52;;;;;;;21.58;5.80;;;;;;;;;;4386738;32;20293;-58
2021/06/25 07:23:18;;;;;;;23.23;5.70;;;;;;;;;;4387799;32;20230;-58
2021/06/25 07:25:44;;;;;;;21.92;5.97;;;;;;;;;;4387603;32;20902;-59
2021/06/25 07:28:10;;;;;;;20.05;7.10;;;;;;;;;;4373096;32;20299;-58
2021/06/25 07:30:36;;;;;;;22.52;7.15;;;;;;;;;;4386478;32;20281;-57
2021/06/25 07:33:02;;;;;;;13.45;5.50;;;;;;;;;;4387810;32;20591;-58
2021/06/25 07:35:28;;;;;;;23.62;5.70;;;;;;;;;;4387860;32;20744;-57
2021/06/25 07:37:54;;;;;;;16.00;6.65;;;;;;;;;;4387567;32;20320;-58
2021/06/25 07:40:20;;;;;;;14.90;6.15;;;;;;;;;;4386745;32;20277;-58
2021/06/25 07:42:46;;;;;;;20.58;6.32;;;;;;;;;;4387418;32;20571;-58
2021/06/25 07:45:13;;;;;;;24.45;6.37;;;;;;;;;;4373919;32;20300;-57
2021/06/25 07:47:41;;;;;;;14.40;5.93;;;;;;;;;;4387453;32;20231;-58
2021/06/25 07:50:09;;;;;;;18.23;6.25;;;;;;;;;;4386489;32;20285;-57
2021/06/25 07:52:35;;;;;;;17.25;6.07;;;;;;;;;;4387627;32;20217;-58
2021/06/25 07:55:01;;;;;;;13.38;5.85;;;;;;;;;;4387697;32;20405;-59
2021/06/25 07:57:26;;;;;;;15.43;6.20;;;;;;;;;;4372950;32;20256;-60
2021/06/25 07:59:52;;;;;;;18.12;6.80;;;;;;;;;;4386026;32;20292;-58
2021/06/25 08:02:18;;;;;;;20.20;6.75;;;;;;;;;;4387652;32;20628;-58
2021/06/25 08:04:47;;;;;;;23.48;7.20;;;;;;;;;;4387261;32;20414;-59
2021/06/25 08:07:16;;;;;;;19.20;7.12;;;;;;;;;;4387745;32;20230;-59
2021/06/25 08:09:42;;;;;;;21.02;6.55;;;;;;;;;;4386706;32;20234;-58
2021/06/25 08:12:10;;;;;;;30.02;7.20;;;;;;;;;;4386326;32;20305;-58
2021/06/25 08:14:36;;;;;;;17.42;6.12;;;;;;;;;;4386669;32;20239;-58
2021/06/25 08:17:02;;;;;;;30.27;8.80;;;;;;;;;;4386393;32;20287;-57
2021/06/25 08:19:28;;;;;;;21.85;6.70;;;;;;;;;;4386813;32;20294;-59
2021/06/25 08:21:53;;;;;;;18.87;7.45;;;;;;;;;;4386709;32;20297;-58
2021/06/25 08:24:19;;;;;;;19.17;6.37;;;;;;;;;;4386663;32;20240;-58
2021/06/25 08:26:44;;;;;;;28.87;8.20;;;;;;;;;;4387051;32;20300;-58
2021/06/25 08:29:10;;;;;;;24.87;7.12;;;;;;;;;;4386622;32;20264;-59
2021/06/25 08:31:36;;;;;;;22.95;7.87;;;;;;;;;;4386723;32;20277;-57
2021/06/25 08:34:01;;;;;;;18.45;7.40;;;;;;;;;;4387081;32;20198;-57
2021/06/25 08:36:28;;;;;;;27.48;7.55;;;;;;;;;;4386647;32;20323;-60
2021/06/25 08:38:54;;;;;;;17.33;6.62;;;;;;;;;;4386520;32;20294;-58
2021/06/25 08:41:19;;;;;;;15.55;5.65;;;;;;;;;;4373119;32;20312;-59
2021/06/25 08:43:45;;;;;;;22.40;8.13;;;;;;;;;;4373246;32;20308;-58
2021/06/25 08:46:11;;;;;;;21.87;6.10;;;;;;;;;;4384648;32;20337;-58
2021/06/25 08:48:38;;;;;;;15.60;6.50;;;;;;;;;;4384687;32;20288;-58
2021/06/25 08:51:06;;;;;;;16.62;6.70;;;;;;;;;;4383212;32;20694;-58
2021/06/25 08:53:32;;;;;;;25.52;7.22;;;;;;;;;;4386922;32;20251;-58
2021/06/25 08:55:57;;;;;;;27.67;6.60;;;;;;;;;;4387493;32;20276;-58
2021/06/25 08:58:24;;;;;;;22.10;5.95;;;;;;;;;;4386621;32;20260;-59
2021/06/25 09:00:51;;;;;;;25.12;6.32;;;;;;;;;;4387462;32;20336;-60
2021/06/25 09:03:24;;;;;;;21.98;6.72;;;;;;;;;;4386306;32;20292;-58
2021/06/25 09:05:51;;;;;;;16.50;6.32;;;;;;;;;;4386926;32;20194;-58
2021/06/25 09:08:27;;;;;;;16.00;5.45;;;;;;;;;;4386013;32;20308;-58
2021/06/25 09:10:56;;;;;;;20.95;6.07;;;;;;;;;;4386324;32;20653;-59
2021/06/25 09:13:36;;;;;;;18.23;6.15;;;;;;;;;;4372616;32;20271;-59
2021/06/25 09:16:26;;;;;;;14.98;4.87;;;;;;;;;;4387192;32;20214;-58
2021/06/25 09:19:05;;;;;;;11.82;4.43;;;;;;;;;;4377843;32;20237;-58
2021/06/25 09:21:55;;;;;;;19.30;5.97;;;;;;;;;;4386552;32;20241;-58
2021/06/25 09:24:26;;;;;;;30.35;6.72;;;;;;;;;;4379300;32;20221;-58
2021/06/25 09:26:59;;;;;;;23.52;6.05;;;;;;;;;;4389282;32;20240;-58
2021/06/25 09:29:29;;;;;;;31.65;8.23;;;;;;;;;;4372019;32;20255;-58
2021/06/25 09:31:59;;;;;;;23.23;6.50;;;;;;;;;;4389692;32;20360;-58
2021/06/25 09:34:45;;;;;;;18.48;6.75;;;;;;;;;;4389487;32;20292;-59
2021/06/25 09:37:14;;;;;;;27.95;7.10;;;;;;;;;;4389253;32;20260;-59
2021/06/25 09:39:59;;;;;;;19.92;7.12;;;;;;;;;;4369902;32;20922;-59
2021/06/25 09:42:25;;;;;;;18.20;6.12;;;;;;;;;;4388906;32;20361;-58
2021/06/25 09:45:13;;;;;;;21.77;6.43;;;;;;;;;;4387540;32;20259;-58
2021/06/25 09:47:41;;;;;;;19.10;6.10;;;;;;;;;;4388535;32;20320;-59
2021/06/25 09:50:07;;;;;;;15.85;4.32;;;;;;;;;;4388283;32;20252;-60
2021/06/25 09:53:06;;;;;;;18.65;5.70;;;;;;;;;;4375646;32;20222;-59
2021/06/25 10:03:58;;;;;;;15.95;4.30;;;;;;;;;;4389052;32;20701;-59
2021/06/25 10:06:25;;;;;;;21.00;4.68;;;;;;;;;;4389487;32;20649;-58
2021/06/25 10:08:52;;;;;;;22.17;6.15;;;;;;;;;;4375405;32;20609;-59
2021/06/25 10:11:20;;;;;;;16.33;5.37;;;;;;;;;;4389675;32;20222;-59
2021/06/25 10:13:48;;;;;;;25.62;5.78;;;;;;;;;;4389556;32;20314;-59
2021/06/25 10:16:14;;;;;;;22.98;5.15;;;;;;;;;;4389067;32;20206;-59
2021/06/25 10:18:46;;;;;;;22.62;4.60;;;;;;;;;;4389154;32;20230;-57
2021/06/25 10:21:15;;;;;;;18.12;4.72;;;;;;;;;;4388058;32;20242;-60
2021/06/25 10:23:46;;;;;;;17.73;4.28;;;;;;;;;;4388720;32;20214;-59
2021/06/25 10:26:13;;;;;;;19.92;3.28;;;;;;;;;;4389453;32;20216;-58
2021/06/25 10:28:42;;;;;;;12.57;5.03;;;;;;;;;;4374871;32;20703;-59
2021/06/25 10:31:09;;;;;;;16.23;4.93;;;;;;;;;;4377250;32;20308;-58
2021/06/25 10:33:36;;;;;;;16.10;4.97;;;;;;;;;;4388189;32;20233;-58
2021/06/25 10:36:05;;;;;;;17.05;5.03;;;;;;;;;;4388783;32;20197;-58
2021/06/25 10:38:31;;;;;;;24.90;4.50;;;;;;;;;;4375045;32;20277;-58
2021/06/25 10:41:03;;;;;;;13.30;4.72;;;;;;;;;;4389262;32;20332;-57
2021/06/25 10:43:49;;;;;;;20.92;5.45;;;;;;;;;;4388883;32;20334;-59
2021/06/25 10:46:24;;;;;;;19.80;5.55;;;;;;;;;;4389077;32;20236;-58
2021/06/25 10:48:55;;;;;;;21.48;4.78;;;;;;;;;;4389023;32;20267;-56
2021/06/25 10:51:24;;;;;;;14.25;5.03;;;;;;;;;;4388879;32;20242;-58
2021/06/25 10:54:16;;;;;;;17.30;4.97;;;;;;;;;;4388793;32;20249;-58
2021/06/25 10:56:48;;;;;;;19.20;4.65;;;;;;;;;;4372377;32;20230;-58
2021/06/25 10:59:20;;;;;;;29.42;5.78;;;;;;;;;;4388003;32;20252;-58
2021/06/25 11:01:51;;;;;;;21.33;5.35;;;;;;;;;;4389158;32;20269;-58
2021/06/25 11:04:32;;;;;;;20.17;5.20;;;;;;;;;;4388458;32;20718;-58
2021/06/25 11:06:58;;;;;;;18.25;4.60;;;;;;;;;;4387851;32;20296;-58
2021/06/25 11:09:28;;;;;;;19.37;5.05;;;;;;;;;;4388598;32;20668;-58
2021/06/25 11:12:16;;;;;;;14.13;4.78;;;;;;;;;;4374520;32;20323;-59
2021/06/25 11:14:42;;;;;;;20.70;5.50;;;;;;;;;;4388649;32;20210;-58
2021/06/25 11:17:07;;;;;;;15.55;4.22;;;;;;;;;;4388276;32;20369;-58
2021/06/25 11:19:40;;;;;;;15.52;5.20;;;;;;;;;;4388367;32;20367;-58
2021/06/25 11:22:35;;;;;;;12.93;3.78;;;;;;;;;;4388233;32;20285;-58
2021/06/25 11:25:00;;;;;;;13.55;3.75;;;;;;;;;;4387805;32;20277;-58
2021/06/25 11:27:46;;;;;;;14.68;4.18;;;;;;;;;;4388042;32;20776;-58
2021/06/25 11:30:11;;;;;;;14.77;4.03;;;;;;;;;;4387872;32;20323;-58
2021/06/25 11:32:37;;;;;;;18.17;3.67;;;;;;;;;;4372054;32;20246;-59
2021/06/25 11:35:35;;;;;;;25.92;4.43;;;;;;;;;;4367751;32;20274;-59
2021/06/25 11:38:01;;;;;;;14.95;4.60;;;;;;;;;;4371718;32;20246;-59
2021/06/25 11:40:49;;;;;;;21.20;4.95;;;;;;;;;;4285074;32;20744;-60
2021/06/25 11:43:15;;;;;;;16.52;4.25;;;;;;;;;;4372577;32;20222;-58
2021/06/25 11:45:45;;;;;;;17.77;3.95;;;;;;;;;;4370322;32;20258;-58
2021/06/25 11:48:12;;;;;;;24.92;5.30;;;;;;;;;;4361140;32;20260;-61
2021/06/25 11:50:38;;;;;;;12.30;4.40;;;;;;;;;;4285511;32;20343;-57
2021/06/25 11:53:05;;;;;;;11.85;4.00;;;;;;;;;;4373144;32;20316;-58
2021/06/25 11:55:31;;;;;;;17.30;3.75;;;;;;;;;;4373057;32;20222;-60
2021/06/25 11:57:56;;;;;;;12.37;3.58;;;;;;;;;;4373745;32;20297;-59
2021/06/25 12:00:22;;;;;;;30.92;4.87;;;;;;;;;;4360460;32;20300;-58
2021/06/25 12:02:53;;;;;;;14.70;3.60;;;;;;;;;;4232988;32;20761;-57
2021/06/25 12:05:29;;;;;;;15.57;3.90;;;;;;;;;;4283783;32;20230;-57
2021/06/25 12:08:06;;;;;;;23.45;4.72;;;;;;;;;;4365208;32;20351;-59
2021/06/25 12:10:32;;;;;;;15.55;4.82;;;;;;;;;;4370773;32;20242;-59
2021/06/25 12:12:59;;;;;;;14.77;4.07;;;;;;;;;;4373353;32;20248;-59
2021/06/25 12:15:27;;;;;;;15.85;4.10;;;;;;;;;;4372607;32;20523;-59
2021/06/25 12:17:55;;;;;;;17.08;3.60;;;;;;;;;;4372388;32;20213;-59
2021/06/25 12:20:24;;;;;;;14.65;3.05;;;;;;;;;;4371856;32;20202;-59
2021/06/25 12:23:01;;;;;;;15.30;4.05;;;;;;;;;;4371910;32;20347;-58
2021/06/25 12:25:29;;;;;;;15.73;3.85;;;;;;;;;;4371479;32;20272;-59
2021/06/25 12:27:55;;;;;;;13.88;4.32;;;;;;;;;;4371313;32;20297;-58
2021/06/25 12:30:21;;;;;;;16.27;3.78;;;;;;;;;;4371633;32;20285;-61
2021/06/25 12:33:00;;;;;;;12.65;3.70;;;;;;;;;;4382837;32;20326;-57
2021/06/25 12:35:31;;;;;;;9.77;4.03;;;;;;;;;;4386609;32;20671;-59
2021/06/25 12:37:56;;;;;;;17.30;3.35;;;;;;;;;;4386178;32;20352;-59
2021/06/25 12:40:49;;;;;;;18.23;4.45;;;;;;;;;;4386375;32;20587;-58
2021/06/25 12:43:20;;;;;;;15.35;3.95;;;;;;;;;;4386784;32;20272;-57
2021/06/25 12:45:52;;;;;;;17.10;4.20;;;;;;;;;;4385633;32;20649;-59
2021/06/25 12:48:19;;;;;;;12.25;3.45;;;;;;;;;;4386089;32;20214;-59
2021/06/25 12:50:46;;;;;;;15.52;3.37;;;;;;;;;;4386550;32;20297;-58
2021/06/25 12:53:14;;;;;;;17.65;4.55;;;;;;;;;;4386432;32;20335;-59
2021/06/25 12:55:39;;;;;;;32.97;4.85;;;;;;;;;;4386797;32;20289;-58
2021/06/25 12:58:07;;;;;;;9.68;3.47;;;;;;;;;;4388814;32;20239;-58
2021/06/25 13:00:32;;;;;;;20.10;3.83;;;;;;;;;;4389541;32;20202;-58
2021/06/25 13:02:58;;;;;;;17.35;4.70;;;;;;;;;;4376274;32;20321;-58
2021/06/25 13:05:36;;;;;;;16.10;3.33;;;;;;;;;;4389667;32;20277;-58
2021/06/25 13:08:13;;;;;;;21.60;3.85;;;;;;;;;;4389282;32;20405;-58
2021/06/25 13:10:38;;;;;;;18.05;4.53;;;;;;;;;;4389465;32;20327;-59
2021/06/25 13:13:23;;;;;;;13.60;4.05;;;;;;;;;;4389703;32;20301;-58
2021/06/25 13:16:00;;;;;;;13.65;4.30;;;;;;;;;;4363407;32;20230;-58
2021/06/25 13:18:28;;;;;;;13.07;4.05;;;;;;;;;;4389260;32;20245;-58
2021/06/25 13:21:29;;;;;;;21.98;3.60;;;;;;;;;;4389393;32;20458;-60
2021/06/25 13:24:12;;;;;;;14.15;3.12;;;;;;;;;;4389222;32;20879;-57
2021/06/25 13:26:50;;;;;;;14.73;3.55;;;;;;;;;;4389112;32;20223;-59
2021/06/25 13:29:17;;;;;;;10.95;3.33;;;;;;;;;;4389114;32;20384;-59
2021/06/25 13:32:00;;;;;;;17.55;2.97;;;;;;;;;;4388989;32;20237;-58
2021/06/25 13:34:25;;;;;;;23.92;4.12;;;;;;;;;;4374528;32;20682;-58
2021/06/25 13:37:02;;;;;;;15.48;3.60;;;;;;;;;;4389343;32;20213;-58
2021/06/25 13:39:30;;;;;;;16.58;4.32;;;;;;;;;;4389084;32;20213;-58
2021/06/25 13:41:57;;;;;;;23.17;4.37;;;;;;;;;;4389086;32;20268;-58
2021/06/25 13:44:30;;;;;;;25.42;5.20;;;;;;;;;;4389513;32;20206;-59
2021/06/25 13:47:15;;;;;;;13.52;3.87;;;;;;;;;;4389039;32;20269;-58
2021/06/25 13:49:53;;;;;;;14.73;3.20;;;;;;;;;;4375201;32;20679;-58
2021/06/25 13:52:28;;;;;;;25.35;4.65;;;;;;;;;;4388543;32;20677;-58
2021/06/25 13:55:23;;;;;;;16.48;4.93;;;;;;;;;;4388869;32;20232;-58
2021/06/25 13:57:57;;;;;;;14.98;3.65;;;;;;;;;;4388710;32;20268;-58
2021/06/25 14:00:43;;;;;;;9.73;3.33;;;;;;;;;;4388878;32;20316;-59
2021/06/25 14:03:20;;;;;;;17.77;3.60;;;;;;;;;;4389039;32;20206;-59
2021/06/25 14:06:06;;;;;;;14.13;4.18;;;;;;;;;;4388600;32;20214;-58
2021/06/25 14:08:41;;;;;;;16.77;4.75;;;;;;;;;;4387542;32;20308;-59
2021/06/25 14:11:11;;;;;;;23.80;3.97;;;;;;;;;;4375063;32;20291;-59
2021/06/25 14:13:40;;;;;;;13.62;3.78;;;;;;;;;;4388427;32;20727;-59
2021/06/25 14:16:17;;;;;;;14.77;3.47;;;;;;;;;;4374685;32;20351;-59
2021/06/25 14:18:43;;;;;;;15.57;3.80;;;;;;;;;;4388429;32;20275;-58
2021/06/25 14:21:10;;;;;;;17.65;2.83;;;;;;;;;;4388971;32;20355;-59
2021/06/25 14:23:36;;;;;;;14.00;2.83;;;;;;;;;;4388645;32;20210;-58
2021/06/25 14:26:04;;;;;;;15.80;2.78;;;;;;;;;;4388534;32;20288;-58
2021/06/25 14:28:30;;;;;;;17.70;3.95;;;;;;;;;;4374908;32;20350;-58
2021/06/25 14:30:56;;;;;;;23.58;4.70;;;;;;;;;;4389068;32;20292;-60
2021/06/25 14:33:22;;;;;;;12.40;4.03;;;;;;;;;;4388813;32;20382;-58
2021/06/25 14:35:48;;;;;;;10.55;4.12;;;;;;;;;;4388161;32;20276;-58
2021/06/25 14:38:13;;;;;;;16.08;4.97;;;;;;;;;;4387239;32;20314;-58
2021/06/25 14:40:39;;;;;;;20.92;4.50;;;;;;;;;;4387181;32;20316;-59
2021/06/25 14:43:04;;;;;;;14.05;4.28;;;;;;;;;;4387991;32;20305;-58
2021/06/25 14:45:30;;;;;;;11.32;3.00;;;;;;;;;;4374664;32;20292;-58
2021/06/25 14:47:55;;;;;;;18.87;4.57;;;;;;;;;;4388603;32;20285;-60
2021/06/25 14:50:21;;;;;;;10.90;4.30;;;;;;;;;;4388419;32;20311;-60
2021/06/25 14:52:46;;;;;;;17.10;3.70;;;;;;;;;;4387854;32;20250;-59
2021/06/25 14:55:12;;;;;;;21.08;4.68;;;;;;;;;;4374578;32;20297;-58